TimeMST,TemperatureF,Dew PointF,Humidity,Sea Level PressureIn,VisibilityMPH,Wind Direction,Wind SpeedMPH,Gust SpeedMPH,PrecipitationIn,Events,Conditions,WindDirDegrees,DateUTC
12:57 AM,12.0,8.1,84,30.35,10.0,Calm,Calm,-,N/A,,Clear,0,2013-01-19 07:57:00
1:57 AM,10.9,6.1,81,30.36,10.0,Calm,Calm,-,N/A,,Clear,0,2013-01-19 08:57:00
2:57 AM,10.0,6.1,84,30.37,10.0,Calm,Calm,-,N/A,,Clear,0,2013-01-19 09:57:00
3:57 AM,9.0,3.9,80,30.37,10.0,Calm,Calm,-,N/A,,Clear,0,2013-01-19 10:57:00
4:57 AM,8.1,3.0,80,30.39,10.0,Calm,Calm,-,N/A,,Clear,0,2013-01-19 11:57:00
5:57 AM,6.1,1.0,80,30.45,10.0,Calm,Calm,-,N/A,,Clear,0,2013-01-19 12:57:00
6:57 AM,6.1,1.0,80,30.49,10.0,Calm,Calm,-,N/A,,Clear,0,2013-01-19 13:57:00
7:57 AM,6.1,1.0,80,30.51,10.0,Calm,Calm,-,N/A,,Clear,0,2013-01-19 14:57:00
8:57 AM,16.0,10.9,81,30.50,10.0,Calm,Calm,-,N/A,,Clear,0,2013-01-19 15:57:00
9:57 AM,30.9,18.0,59,30.45,10.0,Calm,Calm,-,N/A,,Clear,0,2013-01-19 16:57:00
10:57 AM,37.0,17.1,44,30.45,10.0,East,10.4,-,N/A,,Clear,90,2013-01-19 17:57:00
11:57 AM,39.0,17.1,41,30.41,10.0,East,9.2,-,N/A,,Clear,90,2013-01-19 18:57:00
12:57 PM,39.0,16.0,39,30.40,10.0,East,9.2,17.3,N/A,,Clear,90,2013-01-19 19:57:00
1:57 PM,39.9,16.0,38,30.39,10.0,NE,10.4,-,N/A,,Clear,50,2013-01-19 20:57:00
2:57 PM,41.0,17.1,38,30.38,10.0,NE,11.5,-,N/A,,Clear,40,2013-01-19 21:57:00
3:57 PM,42.1,14.0,32,30.38,10.0,ENE,9.2,-,N/A,,Clear,60,2013-01-19 22:57:00
4:57 PM,39.9,14.0,35,30.40,10.0,East,6.9,-,N/A,,Clear,80,2013-01-19 23:57:00
5:57 PM,32.0,15.1,50,30.45,10.0,NNE,4.6,-,N/A,,Clear,30,2013-01-20 00:57:00
6:57 PM,25.0,14.0,63,30.50,10.0,Calm,Calm,-,N/A,,Clear,0,2013-01-20 01:57:00
7:57 PM,23.0,14.0,68,30.51,10.0,Calm,Calm,-,N/A,,Clear,0,2013-01-20 02:57:00
8:57 PM,19.0,12.9,77,30.48,10.0,Calm,Calm,-,N/A,,Clear,0,2013-01-20 03:57:00
9:57 PM,16.0,10.9,81,30.42,10.0,Calm,Calm,-,N/A,,Clear,0,2013-01-20 04:57:00
10:57 PM,14.0,9.0,80,30.40,10.0,Calm,Calm,-,N/A,,Clear,0,2013-01-20 05:57:00
11:57 PM,12.0,8.1,84,30.40,10.0,Calm,Calm,-,N/A,,Clear,0,2013-01-20 06:57:00